Time;durP1;ratioP1;P1;durP2;ratioP2;P2;SDS_P1;SDS_P2;PMS_P1;PMS_P2;Temp;Humidity;BMP_temperature;BMP_pressure;BME280_temperature;BME280_humidity;BME280_pressure;Samples;Min_cycle;Max_cycle;Signal;HPM_P1;HPM_P2
2022/10/18 00:02:09;;;;;;;12.47;2.67;;;18.70;99.90;;;;;;5027843;28;20282;-71
2022/10/18 00:04:35;;;;;;;6.37;2.13;;;18.70;99.90;;;;;;5029498;28;20242;-71
2022/10/18 00:07:01;;;;;;;6.47;2.00;;;18.80;99.90;;;;;;5035867;28;20224;-71
2022/10/18 00:09:28;;;;;;;6.07;1.60;;;18.70;99.90;;;;;;5046017;28;20205;-71
2022/10/18 00:11:55;;;;;;;3.87;1.70;;;18.70;99.90;;;;;;5017225;28;20211;-71
2022/10/18 00:14:21;;;;;;;8.93;2.43;;;18.70;99.90;;;;;;5029897;28;20596;-71
2022/10/18 00:16:48;;;;;;;4.73;1.90;;;18.70;99.90;;;;;;5047853;28;20214;-71
2022/10/18 00:19:14;;;;;;;3.63;1.63;;;18.70;99.90;;;;;;5032473;28;20604;-71
2022/10/18 00:21:40;;;;;;;6.07;1.90;;;18.70;99.90;;;;;;5032382;28;20196;-71
2022/10/18 00:24:07;;;;;;;4.57;1.90;;;18.70;99.90;;;;;;5045636;28;20192;-71
2022/10/18 00:26:33;;;;;;;4.23;2.20;;;18.70;99.90;;;;;;5028724;28;20240;-71
2022/10/18 00:29:04;;;;;;;4.60;1.90;;;18.60;99.90;;;;;;5049632;28;20187;-71
2022/10/18 00:31:34;;;;;;;6.47;2.00;;;18.60;99.90;;;;;;5028392;28;20658;-71
2022/10/18 00:34:09;;;;;;;5.83;2.03;;;18.60;99.90;;;;;;5028195;28;20212;-71
2022/10/18 00:36:35;;;;;;;3.83;1.70;;;18.50;99.90;;;;;;5044257;28;20191;-71
2022/10/18 00:39:05;;;;;;;8.00;2.13;;;18.40;99.90;;;;;;5038302;28;20580;-71
2022/10/18 00:41:35;;;;;;;6.00;1.70;;;18.40;99.90;;;;;;5017422;28;20207;-71
2022/10/18 00:44:11;;;;;;;6.23;2.03;;;18.40;99.90;;;;;;5028584;28;20554;-71
2022/10/18 00:46:44;;;;;;;9.30;2.20;;;18.40;99.90;;;;;;5042502;28;20732;-71
2022/10/18 00:49:31;;;;;;;3.80;2.03;;;18.40;99.90;;;;;;5029993;28;20188;-71
2022/10/18 00:52:20;;;;;;;4.00;2.00;;;18.30;99.90;;;;;;5008187;28;20189;-71
2022/10/18 00:54:49;;;;;;;4.47;2.10;;;18.30;99.90;;;;;;5008080;28;20355;-71
2022/10/18 00:57:17;;;;;;;3.70;1.63;;;18.30;99.90;;;;;;5028666;28;20196;-71
2022/10/18 00:59:45;;;;;;;4.97;2.07;;;18.30;99.90;;;;;;5021051;28;20207;-71
2022/10/18 01:02:17;;;;;;;7.13;2.13;;;18.30;99.90;;;;;;5029194;28;20184;-71
2022/10/18 01:04:47;;;;;;;3.53;1.80;;;18.20;99.90;;;;;;5029444;28;20191;-71
2022/10/18 01:07:26;;;;;;;5.17;2.00;;;18.20;99.90;;;;;;5026034;28;20219;-71
2022/10/18 01:10:15;;;;;;;6.50;2.20;;;18.20;99.90;;;;;;5003637;28;20242;-71
2022/10/18 01:13:14;;;;;;;5.83;2.10;;;18.10;99.90;;;;;;5036184;28;20199;-71
2022/10/18 01:16:00;;;;;;;6.50;2.27;;;18.10;99.90;;;;;;5041965;28;20500;-71
2022/10/18 01:19:01;;;;;;;3.57;1.90;;;18.10;99.90;;;;;;5028678;28;20306;-71
2022/10/18 01:22:01;;;;;;;4.80;2.07;;;18.10;99.90;;;;;;5010019;28;20194;-71
2022/10/18 01:25:21;;;;;;;7.13;2.37;;;18.10;99.90;;;;;;5052306;28;20215;-71
2022/10/18 01:28:24;;;;;;;3.87;1.90;;;18.10;99.90;;;;;;5009710;28;20232;-71
2022/10/18 01:31:14;;;;;;;7.17;2.20;;;18.00;99.90;;;;;;5027500;28;20665;-71
2022/10/18 01:33:49;;;;;;;4.90;2.20;;;18.00;99.90;;;;;;5027193;28;20747;-71
2022/10/18 01:36:26;;;;;;;3.67;2.20;;;18.00;99.90;;;;;;5030234;28;20390;-71
2022/10/18 01:38:57;;;;;;;4.97;2.33;;;18.00;99.90;;;;;;5027576;28;20199;-71
2022/10/18 01:41:26;;;;;;;5.10;2.57;;;18.00;99.90;;;;;;5044151;28;20906;-71
2022/10/18 01:44:00;;;;;;;6.47;2.33;;;18.00;99.90;;;;;;5036511;28;20196;-71
2022/10/18 01:46:28;;;;;;;7.73;2.43;;;18.00;99.90;;;;;;5027773;28;20550;-71
2022/10/18 01:48:55;;;;;;;5.50;2.30;;;18.00;99.90;;;;;;5029042;28;20267;-71
2022/10/18 01:51:29;;;;;;;6.03;2.43;;;18.00;99.90;;;;;;5029923;28;20191;-71
2022/10/18 01:53:57;;;;;;;7.53;2.13;;;18.00;99.90;;;;;;5047441;28;20187;-71
2022/10/18 01:56:45;;;;;;;5.57;2.30;;;18.00;99.90;;;;;;5026957;28;20200;-71
2022/10/18 01:59:49;;;;;;;7.23;2.20;;;18.00;99.90;;;;;;5023590;28;20672;-71
2022/10/18 02:03:00;;;;;;;9.40;2.27;;;18.00;99.90;;;;;;5018419;28;20196;-71
2022/10/18 02:05:56;;;;;;;4.20;1.90;;;18.10;99.90;;;;;;5025993;28;20206;-71
2022/10/18 02:08:56;;;;;;;4.73;2.07;;;18.00;99.90;;;;;;5030587;28;20661;-71
2022/10/18 02:11:26;;;;;;;5.00;2.03;;;18.00;99.90;;;;;;5030195;28;20184;-71
2022/10/18 02:13:59;;;;;;;5.47;1.93;;;18.00;99.90;;;;;;5052004;28;20677;-71
2022/10/18 02:16:34;;;;;;;5.40;2.13;;;18.00;99.90;;;;;;5023844;28;20198;-71
2022/10/18 02:19:19;;;;;;;7.43;2.30;;;18.00;99.90;;;;;;5033671;28;20261;-71
2022/10/18 02:21:50;;;;;;;5.97;2.17;;;18.00;99.90;;;;;;5042371;28;20195;-71
2022/10/18 02:24:19;;;;;;;5.57;2.03;;;17.90;99.90;;;;;;5034865;28;20223;-72
2022/10/18 02:26:46;;;;;;;4.07;1.80;;;17.90;99.90;;;;;;5031847;28;20212;-71
2022/10/18 02:29:13;;;;;;;7.40;2.57;;;17.90;99.90;;;;;;5007367;28;20666;-72
2022/10/18 02:31:44;;;;;;;10.10;2.53;;;17.90;99.90;;;;;;5040428;28;20180;-71
2022/10/18 02:34:40;;;;;;;8.33;2.30;;;17.90;99.90;;;;;;5044388;28;20196;-71
2022/10/18 02:37:09;;;;;;;4.77;2.03;;;17.90;99.90;;;;;;5026137;28;20188;-71
2022/10/18 02:39:44;;;;;;;7.60;2.47;;;17.90;99.90;;;;;;5048103;28;20196;-71
2022/10/18 02:42:12;;;;;;;5.63;2.50;;;17.90;99.90;;;;;;5035243;28;20219;-71
2022/10/18 02:44:39;;;;;;;6.87;2.43;;;17.90;99.90;;;;;;5030649;28;20191;-71
2022/10/18 02:47:08;;;;;;;4.60;2.10;;;17.90;99.90;;;;;;5032105;28;20208;-71
2022/10/18 02:49:36;;;;;;;5.57;2.17;;;17.90;99.90;;;;;;5032327;28;20271;-71
2022/10/18 02:52:02;;;;;;;6.17;2.30;;;17.90;99.90;;;;;;5019438;28;20634;-71
2022/10/18 02:54:29;;;;;;;3.33;1.83;;;17.90;99.90;;;;;;5030512;28;20184;-72
2022/10/18 02:56:55;;;;;;;10.27;2.47;;;17.90;99.90;;;;;;5039092;28;20306;-71
2022/10/18 02:59:21;;;;;;;6.23;2.40;;;17.90;99.90;;;;;;5011823;28;20200;-71
2022/10/18 03:01:48;;;;;;;5.00;2.13;;;17.90;99.90;;;;;;5034029;28;20211;-71
2022/10/18 03:04:15;;;;;;;3.37;1.90;;;18.00;99.90;;;;;;5040434;28;20194;-72
2022/10/18 03:06:42;;;;;;;7.47;2.33;;;18.00;99.90;;;;;;5026981;28;20215;-72
2022/10/18 03:09:09;;;;;;;6.07;2.30;;;18.00;99.90;;;;;;5012232;28;20177;-71
2022/10/18 03:11:35;;;;;;;5.60;2.30;;;18.00;99.90;;;;;;5020035;28;20279;-71
2022/10/18 03:14:01;;;;;;;5.97;1.93;;;18.00;99.90;;;;;;5026701;28;20189;-72
2022/10/18 03:16:28;;;;;;;4.73;2.03;;;18.00;99.90;;;;;;5026055;28;20216;-71
2022/10/18 03:18:55;;;;;;;5.30;2.10;;;17.90;99.90;;;;;;5029585;28;20335;-71
2022/10/18 03:21:21;;;;;;;4.87;1.70;;;17.90;99.90;;;;;;5046602;28;20215;-71
2022/10/18 03:23:51;;;;;;;5.50;1.90;;;17.90;99.90;;;;;;5028843;28;20272;-71
2022/10/18 03:26:17;;;;;;;7.83;2.30;;;17.90;99.90;;;;;;5039525;28;20313;-71
2022/10/18 03:28:43;;;;;;;4.90;1.80;;;17.90;99.90;;;;;;5029093;28;20184;-72
2022/10/18 03:31:09;;;;;;;7.57;2.07;;;17.90;99.90;;;;;;5035475;28;20213;-72
2022/10/18 03:33:36;;;;;;;4.90;1.80;;;17.90;99.90;;;;;;5028756;28;20241;-72
2022/10/18 03:36:02;;;;;;;6.13;1.90;;;17.90;99.90;;;;;;5046338;28;20557;-72
2022/10/18 03:38:29;;;;;;;3.30;1.90;;;17.80;99.90;;;;;;5029603;28;20648;-72
2022/10/18 03:40:55;;;;;;;6.80;2.17;;;17.80;99.90;;;;;;5034284;28;20204;-71
2022/10/18 03:43:22;;;;;;;4.53;1.80;;;17.80;99.90;;;;;;5019006;28;20303;-71
2022/10/18 03:45:50;;;;;;;2.57;1.37;;;17.80;99.90;;;;;;5032458;28;20805;-71
2022/10/18 03:48:18;;;;;;;5.33;1.90;;;17.80;99.90;;;;;;5061582;28;20607;-71
2022/10/18 03:50:45;;;;;;;3.70;1.80;;;17.80;99.90;;;;;;5029967;28;20195;-71
2022/10/18 03:53:11;;;;;;;3.17;1.83;;;17.70;99.90;;;;;;5013084;28;20274;-71
2022/10/18 03:55:39;;;;;;;4.87;1.67;;;17.70;99.90;;;;;;5030533;28;20549;-71
2022/10/18 03:58:05;;;;;;;3.70;1.97;;;17.70;99.90;;;;;;5034924;28;20199;-71
2022/10/18 04:00:32;;;;;;;7.00;1.97;;;17.70;99.90;;;;;;5029937;28;20226;-71
2022/10/18 04:02:59;;;;;;;5.90;1.80;;;17.60;99.90;;;;;;5025333;28;20222;-71
2022/10/18 04:05:27;;;;;;;5.57;2.00;;;17.60;99.90;;;;;;5025687;28;20231;-71
2022/10/18 04:07:54;;;;;;;4.63;2.00;;;17.60;99.90;;;;;;5025244;28;20674;-71
2022/10/18 04:10:20;;;;;;;8.47;2.20;;;17.70;99.90;;;;;;5029215;28;20184;-71
2022/10/18 04:12:46;;;;;;;4.03;1.90;;;17.70;99.90;;;;;;5030867;28;20216;-71
2022/10/18 04:15:13;;;;;;;484.77;54.47;;;17.70;99.90;;;;;;5029204;28;20661;-71
2022/10/18 04:17:39;;;;;;;281.20;38.23;;;17.70;99.90;;;;;;5027875;28;20196;-71
2022/10/18 04:20:08;;;;;;;184.17;24.43;;;17.70;99.90;;;;;;5029083;28;20654;-71
2022/10/18 04:22:35;;;;;;;117.37;17.33;;;17.70;99.90;;;;;;5029842;28;20184;-71
2022/10/18 04:25:02;;;;;;;144.20;16.90;;;17.70;99.90;;;;;;5043072;28;20542;-71
2022/10/18 04:27:29;;;;;;;133.33;15.63;;;17.70;99.90;;;;;;5045471;28;20216;-71
2022/10/18 04:29:55;;;;;;;86.73;11.07;;;17.80;99.90;;;;;;5028788;28;20195;-71
2022/10/18 04:32:22;;;;;;;7.67;2.70;;;17.80;99.90;;;;;;5029844;28;20211;-71
2022/10/18 04:34:48;;;;;;;5.63;2.43;;;17.80;99.90;;;;;;5037543;28;20172;-71
2022/10/18 04:37:14;;;;;;;6.37;2.27;;;17.90;99.90;;;;;;5028109;28;20191;-71
2022/10/18 04:39:45;;;;;;;7.53;2.20;;;17.90;99.90;;;;;;5045375;28;20188;-71
2022/10/18 04:42:12;;;;;;;6.03;2.30;;;17.90;99.90;;;;;;5030024;28;20301;-71
2022/10/18 04:44:38;;;;;;;9.60;2.27;;;18.00;99.90;;;;;;5012450;28;20638;-71
2022/10/18 04:47:04;;;;;;;4.93;1.93;;;18.00;99.90;;;;;;5044155;28;20538;-71
2022/10/18 04:49:32;;;;;;;4.33;2.03;;;18.10;99.90;;;;;;5044111;28;20192;-71
2022/10/18 04:51:58;;;;;;;3.90;2.13;;;18.20;99.90;;;;;;5044488;28;20347;-71
2022/10/18 04:54:27;;;;;;;5.57;2.00;;;18.20;99.90;;;;;;5045304;28;20243;-71
2022/10/18 04:56:53;;;;;;;4.43;2.07;;;18.30;99.90;;;;;;5027401;28;20223;-71
2022/10/18 04:59:19;;;;;;;65.83;7.40;;;18.30;99.90;;;;;;5030029;28;20233;-71
2022/10/18 05:01:46;;;;;;;84.67;13.17;;;18.30;99.90;;;;;;5028639;28;20192;-71
2022/10/18 05:04:15;;;;;;;30.97;4.10;;;18.40;99.90;;;;;;5044957;28;20597;-71
2022/10/18 05:06:43;;;;;;;17.87;2.70;;;18.40;99.90;;;;;;5042073;28;20240;-71
2022/10/18 05:09:09;;;;;;;11.57;2.10;;;18.40;99.90;;;;;;5028889;28;20188;-71
2022/10/18 05:11:35;;;;;;;5.57;2.37;;;18.40;99.90;;;;;;5027533;28;20223;-71
2022/10/18 05:14:01;;;;;;;4.83;1.93;;;18.50;99.90;;;;;;5042760;28;20193;-71
2022/10/18 05:16:28;;;;;;;5.17;1.60;;;18.60;99.90;;;;;;5023844;28;20614;-71
2022/10/18 05:18:54;;;;;;;5.03;2.20;;;18.60;99.90;;;;;;5008401;28;20233;-71
2022/10/18 05:21:21;;;;;;;6.40;2.10;;;18.70;99.90;;;;;;5024624;28;20193;-71
2022/10/18 05:23:50;;;;;;;4.70;2.10;;;18.80;99.90;;;;;;5010055;28;20188;-71
2022/10/18 05:26:16;;;;;;;7.00;2.00;;;18.80;99.90;;;;;;5027299;28;20192;-71
2022/10/18 05:28:42;;;;;;;10.73;2.17;;;18.90;99.90;;;;;;5027292;28;20184;-71
2022/10/18 05:31:10;;;;;;;4.47;1.87;;;18.90;99.90;;;;;;5027391;28;20224;-71
2022/10/18 05:33:38;;;;;;;7.63;2.10;;;19.00;99.90;;;;;;5028071;28;20183;-71
2022/10/18 05:36:05;;;;;;;5.63;1.80;;;19.10;99.90;;;;;;5010158;28;20187;-71
2022/10/18 05:38:32;;;;;;;5.40;1.97;;;19.10;99.90;;;;;;5027952;28;20204;-71
2022/10/18 05:41:02;;;;;;;7.23;2.50;;;19.20;99.90;;;;;;5022250;28;20351;-71
2022/10/18 05:43:29;;;;;;;6.50;2.57;;;19.20;99.90;;;;;;5029165;28;20848;-71
2022/10/18 05:45:55;;;;;;;6.47;2.00;;;19.30;99.90;;;;;;5053706;28;20227;-71
2022/10/18 05:48:22;;;;;;;4.20;2.10;;;19.30;99.90;;;;;;5021497;28;20224;-71
2022/10/18 05:50:48;;;;;;;5.50;2.00;;;19.40;99.90;;;;;;5022135;28;20180;-72
2022/10/18 05:53:14;;;;;;;7.10;2.20;;;19.40;99.90;;;;;;5025613;28;20299;-71
2022/10/18 05:55:41;;;;;;;6.27;2.03;;;19.60;99.90;;;;;;5024942;28;20196;-71
2022/10/18 05:58:07;;;;;;;4.30;2.10;;;19.60;99.90;;;;;;5012723;28;20207;-71
2022/10/18 06:00:33;;;;;;;5.07;2.47;;;19.60;99.90;;;;;;5022241;28;20196;-72
2022/10/18 06:03:00;;;;;;;6.87;2.33;;;19.70;99.90;;;;;;5019435;28;20212;-71
2022/10/18 06:05:27;;;;;;;7.03;2.20;;;19.70;99.90;;;;;;5021329;28;20196;-71
2022/10/18 06:07:53;;;;;;;4.67;2.13;;;19.80;99.90;;;;;;5035058;28;20221;-72
2022/10/18 06:10:19;;;;;;;7.47;2.20;;;19.90;99.90;;;;;;5015073;28;20197;-72
2022/10/18 06:12:45;;;;;;;8.37;2.27;;;20.00;99.90;;;;;;5027095;28;20199;-72
2022/10/18 06:15:12;;;;;;;4.50;1.80;;;20.00;99.90;;;;;;5021562;28;20200;-72
2022/10/18 06:17:38;;;;;;;4.17;1.90;;;20.00;99.90;;;;;;5021130;28;20214;-72
2022/10/18 06:20:06;;;;;;;4.90;2.10;;;20.10;99.90;;;;;;5019527;28;20188;-71
2022/10/18 06:22:33;;;;;;;4.90;1.90;;;20.10;99.90;;;;;;5022343;28;20196;-72
2022/10/18 06:24:59;;;;;;;8.70;1.90;;;20.20;99.90;;;;;;5030356;28;20188;-73
2022/10/18 06:27:30;;;;;;;4.07;2.13;;;20.30;99.90;;;;;;5048390;28;20561;-72
2022/10/18 06:29:56;;;;;;;5.10;2.00;;;20.30;99.90;;;;;;5022753;28;20192;-73
2022/10/18 06:32:23;;;;;;;3.35;1.80;;;20.40;99.90;;;;;;5008147;28;20188;-72
2022/10/18 06:34:49;;;;;;;4.10;1.80;;;20.40;99.90;;;;;;5011124;28;20194;-72
2022/10/18 06:37:15;;;;;;;6.33;2.30;;;20.50;99.90;;;;;;5028525;28;20200;-73
2022/10/18 06:39:41;;;;;;;3.95;1.85;;;20.60;99.90;;;;;;5023255;28;20583;-73
2022/10/18 06:42:08;;;;;;;5.87;1.80;;;20.60;99.90;;;;;;5036554;28;20196;-72
2022/10/18 06:44:34;;;;;;;4.80;1.87;;;20.60;99.90;;;;;;5021815;28;20185;-72
2022/10/18 06:47:00;;;;;;;10.35;2.10;;;20.80;99.90;;;;;;5037813;28;20308;-72
2022/10/18 06:49:26;;;;;;;4.63;2.00;;;20.80;99.90;;;;;;5023160;28;20199;-72
2022/10/18 06:51:53;;;;;;;5.47;2.10;;;20.80;99.90;;;;;;5030999;28;20192;-73
2022/10/18 06:54:20;;;;;;;10.82;2.10;;;20.90;99.90;;;;;;5023483;28;20191;-73
2022/10/18 06:56:46;;;;;;;6.87;1.77;;;20.90;99.90;;;;;;5025068;28;20199;-73
2022/10/18 06:59:18;;;;;;;4.03;1.75;;;21.00;99.90;;;;;;5009713;28;20215;-73
2022/10/18 07:01:48;;;;;;;4.60;1.67;;;21.00;99.90;;;;;;5030172;28;20196;-73
2022/10/18 07:04:14;;;;;;;5.87;1.97;;;21.10;99.90;;;;;;5031421;28;20727;-73
2022/10/18 07:06:40;;;;;;;6.00;2.00;;;21.10;99.90;;;;;;5035122;28;20222;-73
2022/10/18 07:09:06;;;;;;;9.00;2.05;;;21.10;99.90;;;;;;5053630;28;20359;-73
2022/10/18 07:11:32;;;;;;;4.45;1.70;;;21.10;99.90;;;;;;5033294;28;20184;-73
2022/10/18 07:14:02;;;;;;;5.82;2.13;;;21.20;99.90;;;;;;5026244;28;20772;-73
2022/10/18 07:16:29;;;;;;;6.65;1.95;;;21.20;99.90;;;;;;5046995;28;20184;-73
2022/10/18 07:18:56;;;;;;;3.80;1.77;;;21.30;99.90;;;;;;5037877;28;20188;-73
2022/10/18 07:21:25;;;;;;;5.70;1.83;;;21.20;99.90;;;;;;5022733;28;20188;-73
2022/10/18 07:23:52;;;;;;;4.28;1.65;;;21.30;99.90;;;;;;5025487;28;20703;-73
2022/10/18 07:26:22;;;;;;;4.60;1.50;;;21.40;99.90;;;;;;5025802;28;20220;-73
2022/10/18 07:28:56;;;;;;;10.65;2.20;;;21.40;99.90;;;;;;5029879;28;20192;-73
2022/10/18 07:31:24;;;;;;;7.43;1.90;;;21.40;99.90;;;;;;5000562;28;20261;-73
2022/10/18 07:33:51;;;;;;;6.95;2.00;;;21.30;99.90;;;;;;5024608;28;20665;-71
2022/10/18 07:36:17;;;;;;;6.07;1.80;;;21.40;99.90;;;;;;5026069;28;20250;-73
2022/10/18 07:38:45;;;;;;;8.13;2.10;;;21.40;99.90;;;;;;5030329;28;20586;-73
2022/10/18 07:41:13;;;;;;;4.38;1.85;;;21.40;99.90;;;;;;5028195;28;20243;-73
2022/10/18 07:43:45;;;;;;;4.68;1.92;;;21.50;99.90;;;;;;5035896;28;20835;-73
2022/10/18 07:46:14;;;;;;;4.65;1.85;;;21.60;99.90;;;;;;5015665;28;20192;-73
2022/10/18 07:48:41;;;;;;;5.60;2.20;;;21.70;99.90;;;;;;5023799;28;20189;-73
2022/10/18 07:51:09;;;;;;;11.43;2.33;;;21.70;99.90;;;;;;5025417;28;20839;-73
2022/10/18 07:53:36;;;;;;;4.65;2.35;;;21.70;99.90;;;;;;5013205;28;20184;-73
2022/10/18 07:56:10;;;;;;;4.38;1.60;;;21.60;99.90;;;;;;5030223;28;20195;-73
2022/10/18 07:58:36;;;;;;;9.68;2.40;;;21.70;99.90;;;;;;5022956;28;20216;-73
2022/10/18 08:01:05;;;;;;;3.85;1.67;;;21.70;99.90;;;;;;5045907;28;20191;-73
2022/10/18 08:03:32;;;;;;;6.80;2.10;;;21.90;99.90;;;;;;5021701;28;20231;-73
2022/10/18 08:05:59;;;;;;;4.07;2.08;;;21.90;99.90;;;;;;5026743;28;20195;-73
2022/10/18 08:08:27;;;;;;;8.55;2.00;;;21.90;99.90;;;;;;5030260;28;20561;-73
2022/10/18 08:10:54;;;;;;;5.28;1.80;;;21.80;99.90;;;;;;5021991;28;20249;-72
2022/10/18 08:13:21;;;;;;;5.63;2.30;;;21.90;99.90;;;;;;5022965;28;20418;-73
2022/10/18 08:15:47;;;;;;;6.50;2.10;;;21.90;99.90;;;;;;5023870;28;20234;-73
2022/10/18 08:18:13;;;;;;;5.32;2.20;;;22.00;99.90;;;;;;5024512;28;20192;-73
2022/10/18 08:20:45;;;;;;;4.60;1.60;;;22.00;99.90;;;;;;5043427;28;20203;-73
2022/10/18 08:23:11;;;;;;;5.75;2.17;;;22.00;99.90;;;;;;5032339;28;20596;-72
2022/10/18 08:25:37;;;;;;;6.25;2.13;;;21.90;99.90;;;;;;5025284;28;20202;-73
2022/10/18 08:28:04;;;;;;;3.50;1.70;;;22.00;99.90;;;;;;5023153;28;20231;-73
2022/10/18 08:30:30;;;;;;;5.18;1.65;;;22.00;99.90;;;;;;5035389;28;20232;-73
2022/10/18 08:32:56;;;;;;;4.95;1.60;;;22.10;99.90;;;;;;5024387;28;20180;-73
2022/10/18 08:35:23;;;;;;;4.97;1.50;;;22.30;99.90;;;;;;5022387;28;20184;-73
2022/10/18 08:37:50;;;;;;;5.85;1.63;;;22.20;99.90;;;;;;5024809;28;20188;-73
2022/10/18 08:40:16;;;;;;;7.32;2.08;;;22.30;99.90;;;;;;5019040;28;20204;-73
2022/10/18 08:43:14;;;;;;;5.03;2.00;;;22.50;99.90;;;;;;5043023;28;20180;-73
2022/10/18 08:45:43;;;;;;;9.45;2.17;;;22.40;99.90;;;;;;5025573;28;20194;-73
2022/10/18 08:48:55;;;;;;;5.32;1.95;;;22.30;99.90;;;;;;5041664;28;20211;-73
2022/10/18 08:51:48;;;;;;;6.18;1.92;;;22.40;99.90;;;;;;5032833;28;21006;-73
2022/10/18 08:54:43;;;;;;;6.32;1.90;;;22.50;99.90;;;;;;5032351;28;20275;-73
2022/10/18 08:57:17;;;;;;;6.90;2.00;;;22.50;99.90;;;;;;5037117;28;20584;-73
2022/10/18 08:59:43;;;;;;;3.10;1.77;;;22.40;99.90;;;;;;5023145;28;20641;-73
2022/10/18 09:03:18;;;;;;;6.30;1.90;;;22.50;99.90;;;;;;5022004;28;20672;-73
2022/10/18 09:06:27;;;;;;;3.47;1.90;;;22.50;99.90;;;;;;5009315;28;20196;-73
2022/10/18 09:09:21;;;;;;;6.32;2.05;;;22.60;99.90;;;;;;5036535;28;20192;-73
2022/10/18 09:12:25;;;;;;;5.22;2.03;;;22.70;99.90;;;;;;5014206;28;20303;-73
2022/10/18 09:15:49;;;;;;;5.70;1.95;;;22.70;99.90;;;;;;5040179;28;20862;-73
2022/10/18 09:18:50;;;;;;;3.13;1.70;;;22.80;99.90;;;;;;4998236;28;20197;-73
2022/10/18 09:21:22;;;;;;;6.05;2.13;;;22.80;99.90;;;;;;5022471;28;20198;-73
2022/10/18 09:24:04;;;;;;;5.13;2.05;;;22.80;99.90;;;;;;5023364;28;20652;-73
2022/10/18 09:27:01;;;;;;;6.43;2.03;;;22.70;99.90;;;;;;5018747;28;20727;-73
2022/10/18 09:30:15;;;;;;;4.53;2.03;;;22.80;99.90;;;;;;5007789;28;20797;-73
2022/10/18 09:33:32;;;;;;;4.72;2.40;;;22.80;99.90;;;;;;5027009;28;20198;-74
2022/10/18 09:36:06;;;;;;;6.40;2.40;;;22.90;99.90;;;;;;5047313;28;20183;-74
2022/10/18 09:38:47;;;;;;;6.10;2.28;;;22.70;99.90;;;;;;5024324;28;20262;-74
2022/10/18 09:41:26;;;;;;;5.45;2.20;;;22.80;99.90;;;;;;5041008;28;20196;-74
2022/10/18 09:44:38;;;;;;;4.20;2.20;;;22.90;99.90;;;;;;5033863;28;20580;-74
2022/10/18 09:47:25;;;;;;;7.68;2.45;;;22.80;99.90;;;;;;5023881;28;20273;-74
2022/10/18 09:49:59;;;;;;;4.32;2.20;;;22.80;99.90;;;;;;5007880;28;20646;-74
2022/10/18 09:52:47;;;;;;;4.18;2.35;;;22.70;99.90;;;;;;5022721;28;20195;-74
2022/10/18 09:55:29;;;;;;;6.13;2.17;;;22.80;99.90;;;;;;5032208;28;20187;-74
2022/10/18 09:58:01;;;;;;;5.25;2.10;;;22.80;99.90;;;;;;5023632;28;20196;-73
2022/10/18 10:00:50;;;;;;;5.03;2.30;;;22.80;99.90;;;;;;5023356;28;20192;-74
2022/10/18 10:03:16;;;;;;;5.82;2.42;;;22.80;99.90;;;;;;5018054;28;20699;-73
2022/10/18 10:05:44;;;;;;;6.68;2.38;;;22.70;99.90;;;;;;5025888;28;20278;-73
2022/10/18 10:08:10;;;;;;;6.55;2.58;;;22.70;99.90;;;;;;5030901;28;20200;-73
2022/10/18 10:10:44;;;;;;;5.03;2.33;;;22.50;99.90;;;;;;5026485;28;20203;-73
2022/10/18 10:13:24;;;;;;;4.13;2.10;;;22.40;99.90;;;;;;5014930;28;20681;-73
2022/10/18 10:16:01;;;;;;;4.05;2.30;;;22.30;99.90;;;;;;5015817;28;20180;-74
2022/10/18 10:18:35;;;;;;;5.75;2.58;;;22.30;99.90;;;;;;5036308;28;20270;-74
2022/10/18 10:21:12;;;;;;;5.13;2.30;;;22.30;99.90;;;;;;5015669;28;20193;-73
2022/10/18 10:23:46;;;;;;;6.63;2.67;;;23.70;99.90;;;;;;5016307;28;20192;-73
2022/10/18 10:26:32;;;;;;;6.65;2.60;;;23.60;99.90;;;;;;5011590;28;20198;-73
2022/10/18 10:28:59;;;;;;;2.65;2.20;;;25.50;99.90;;;;;;5026176;28;20196;-73
2022/10/18 10:31:33;;;;;;;7.07;2.50;;;24.40;99.90;;;;;;5018367;28;20188;-74
2022/10/18 10:34:19;;;;;;;5.28;2.35;;;23.60;99.90;;;;;;5038602;28;20339;-74
2022/10/18 10:36:54;;;;;;;5.60;2.35;;;23.20;99.90;;;;;;5042753;28;20196;-73
2022/10/18 10:39:23;;;;;;;6.20;2.38;;;22.80;99.90;;;;;;5026271;28;20195;-74
2022/10/18 10:42:00;;;;;;;5.35;2.78;;;22.60;99.90;;;;;;5046284;28;20203;-74
2022/10/18 10:44:34;;;;;;;6.72;2.47;;;22.40;99.90;;;;;;5027042;28;20192;-74
2022/10/18 10:47:02;;;;;;;6.13;2.47;;;22.20;99.90;;;;;;5030361;28;20208;-73
2022/10/18 10:49:34;;;;;;;4.30;2.50;;;22.10;99.90;;;;;;5049209;28;20184;-73
2022/10/18 10:52:03;;;;;;;8.90;2.30;;;21.90;99.90;;;;;;5030207;28;20192;-74
2022/10/18 10:54:34;;;;;;;8.80;3.10;;;21.80;99.90;;;;;;5042901;28;20181;-74
2022/10/18 10:57:25;;;;;;;9.95;2.70;;;21.70;99.90;;;;;;5026877;28;20192;-74
2022/10/18 10:59:57;;;;;;;5.63;2.28;;;21.50;99.90;;;;;;5025009;28;20196;-74
2022/10/18 11:02:33;;;;;;;10.50;2.70;;;21.20;99.90;;;;;;5042720;28;20172;-74
2022/10/18 11:05:29;;;;;;;6.97;2.67;;;21.00;99.90;;;;;;5021755;28;20219;-74
2022/10/18 11:08:04;;;;;;;6.65;2.83;;;21.00;99.90;;;;;;5025552;28;20242;-74
2022/10/18 11:10:37;;;;;;;6.88;2.40;;;20.90;99.90;;;;;;5025510;28;20187;-74
2022/10/18 11:13:40;;;;;;;6.43;2.47;;;20.90;99.90;;;;;;5042527;28;20280;-74
2022/10/18 11:16:52;;;;;;;4.53;2.80;;;20.80;99.90;;;;;;5029829;28;20872;-73
2022/10/18 11:20:18;;;;;;;3.17;2.23;;;20.80;99.90;;;;;;5002637;28;20188;-73
2022/10/18 11:23:11;;;;;;;7.45;2.47;;;20.80;99.90;;;;;;5044501;28;20288;-73
2022/10/18 11:26:11;;;;;;;15.73;3.50;;;20.70;99.90;;;;;;5030420;28;20192;-73
2022/10/18 11:29:08;;;;;;;9.80;3.10;;;20.60;99.90;;;;;;5040977;28;20215;-73
2022/10/18 11:31:44;;;;;;;6.70;2.90;;;20.40;99.90;;;;;;5043479;28;20180;-73
2022/10/18 11:34:45;;;;;;;11.90;3.40;;;20.20;99.90;;;;;;5039622;28;20574;-73
2022/10/18 11:37:37;;;;;;;12.77;3.33;;;20.10;99.90;;;;;;5034078;28;20192;-73
2022/10/18 11:40:34;;;;;;;14.87;3.40;;;20.00;99.90;;;;;;5038913;28;20637;-73
2022/10/18 11:43:24;;;;;;;8.30;3.33;;;19.90;99.90;;;;;;5027359;28;20291;-73
2022/10/18 11:46:26;;;;;;;4.30;2.80;;;19.90;99.90;;;;;;5023474;28;20191;-73
2022/10/18 11:49:43;;;;;;;4.33;2.83;;;19.90;99.90;;;;;;5008622;28;20238;-73
2022/10/18 11:52:43;;;;;;;6.37;2.67;;;19.90;99.90;;;;;;5042594;28;20546;-73
2022/10/18 11:55:37;;;;;;;4.77;3.10;;;19.80;99.90;;;;;;5034047;28;20188;-73
2022/10/18 11:58:32;;;;;;;4.67;2.40;;;19.60;99.90;;;;;;5021079;28;20192;-73
2022/10/18 12:01:26;;;;;;;3.43;2.50;;;19.50;99.90;;;;;;5038361;28;20180;-73
2022/10/18 12:04:06;;;;;;;4.47;2.57;;;19.50;99.90;;;;;;5025535;28;20179;-73
2022/10/18 12:06:37;;;;;;;3.87;2.50;;;19.60;99.90;;;;;;5012689;28;20212;-73
2022/10/18 12:09:25;;;;;;;5.10;2.67;;;19.60;99.90;;;;;;5028274;28;20242;-73
2022/10/18 12:12:08;;;;;;;3.50;2.10;;;19.70;99.90;;;;;;5041130;28;20185;-73
2022/10/18 12:14:54;;;;;;;4.33;2.27;;;19.60;99.90;;;;;;5026641;28;20180;-73
2022/10/18 12:17:30;;;;;;;3.43;2.17;;;19.50;99.90;;;;;;5034617;28;20295;-73
2022/10/18 12:20:40;;;;;;;4.90;2.13;;;19.40;99.90;;;;;;5039609;28;20195;-73
2022/10/18 12:23:44;;;;;;;3.83;2.43;;;19.30;99.90;;;;;;5015486;28;20696;-72
2022/10/18 12:26:11;;;;;;;3.50;2.00;;;19.30;99.90;;;;;;5014656;28;20283;-73
2022/10/18 12:29:21;;;;;;;3.70;2.13;;;19.40;99.90;;;;;;5027652;28;20208;-73
2022/10/18 12:32:12;;;;;;;5.93;2.37;;;19.40;99.90;;;;;;5011326;28;20234;-73
2022/10/18 12:34:49;;;;;;;5.80;3.40;;;19.40;99.90;;;;;;5029984;28;20184;-72
2022/10/18 12:38:00;;;;;;;5.77;3.77;;;19.50;99.90;;;;;;5039845;28;20196;-73
2022/10/18 12:40:46;;;;;;;5.67;3.53;;;19.60;99.90;;;;;;5027390;28;20188;-72
2022/10/18 12:43:35;;;;;;;7.73;3.90;;;19.60;99.90;;;;;;5056149;28;20211;-73
2022/10/18 12:46:09;;;;;;;5.90;3.30;;;19.50;99.90;;;;;;5051729;28;20751;-72
2022/10/18 12:48:47;;;;;;;4.53;2.90;;;19.40;99.90;;;;;;5029607;28;20200;-72
2022/10/18 12:51:22;;;;;;;4.30;2.80;;;19.50;99.90;;;;;;5022405;28;20283;-72
2022/10/18 12:53:59;;;;;;;4.70;2.90;;;19.40;99.90;;;;;;5007747;28;20193;-73
2022/10/18 12:56:29;;;;;;;6.50;3.00;;;19.40;99.90;;;;;;5044217;28;20546;-72
2022/10/18 12:59:14;;;;;;;7.20;3.10;;;19.40;99.90;;;;;;5044221;28;20199;-72
2022/10/18 13:01:53;;;;;;;7.17;3.20;;;19.40;99.90;;;;;;5028149;28;20176;-72
2022/10/18 13:04:31;;;;;;;7.67;3.47;;;19.40;99.90;;;;;;5033360;28;20711;-72
2022/10/18 13:06:58;;;;;;;6.37;3.03;;;19.50;99.90;;;;;;5023503;28;20211;-72
2022/10/18 13:09:37;;;;;;;3.67;2.40;;;19.50;99.90;;;;;;5042915;28;20198;-72
2022/10/18 13:12:09;;;;;;;5.70;2.90;;;19.40;99.90;;;;;;5026446;28;20204;-72
2022/10/18 13:14:41;;;;;;;6.73;3.23;;;19.40;99.90;;;;;;5022956;28;20188;-72
2022/10/18 13:17:59;;;;;;;4.00;3.00;;;19.40;99.90;;;;;;5026203;28;20196;-72
2022/10/18 13:20:58;;;;;;;3.60;2.60;;;19.40;99.90;;;;;;5044020;28;20207;-72
2022/10/18 13:24:00;;;;;;;4.40;2.70;;;19.30;99.90;;;;;;5051724;28;20325;-72
2022/10/18 13:27:21;;;;;;;4.77;2.50;;;19.20;99.90;;;;;;5015126;28;20188;-72
2022/10/18 13:30:17;;;;;;;5.10;2.70;;;19.20;99.90;;;;;;5007891;28;20215;-73